Time;durP1;ratioP1;P1;durP2;ratioP2;P2;SDS_P1;SDS_P2;PMS_P1;PMS_P2;Temp;Humidity;BMP_temperature;BMP_pressure;BME280_temperature;BME280_humidity;BME280_pressure;Samples;Min_cycle;Max_cycle;Signal;HPM_P1;HPM_P2
2023/09/09 00:00:32;;;;;;;5.87;5.37;;;;;;;;;;5048515;28;20268;-31
2023/09/09 00:02:59;;;;;;;5.73;4.90;;;;;;;;;;5046828;28;20213;-32
2023/09/09 00:05:30;;;;;;;6.07;5.47;;;;;;;;;;5049883;28;20217;-33
2023/09/09 00:07:57;;;;;;;5.27;4.77;;;;;;;;;;5048440;28;20208;-32
2023/09/09 00:10:26;;;;;;;6.30;5.43;;;;;;;;;;5047602;28;20221;-31
2023/09/09 00:12:53;;;;;;;5.67;4.80;;;;;;;;;;5050133;28;20207;-35
2023/09/09 00:15:20;;;;;;;5.37;4.87;;;;;;;;;;5048366;28;20297;-33
2023/09/09 00:17:47;;;;;;;7.23;5.50;;;;;;;;;;5051137;28;20201;-33
2023/09/09 00:20:15;;;;;;;6.23;5.50;;;;;;;;;;5050981;28;20318;-31
2023/09/09 00:22:43;;;;;;;6.63;5.17;;;;;;;;;;5049151;28;20201;-32
2023/09/09 00:25:10;;;;;;;6.70;5.40;;;;;;;;;;5045471;28;20556;-33
2023/09/09 00:27:38;;;;;;;7.23;5.90;;;;;;;;;;5049105;28;20265;-33
2023/09/09 00:30:06;;;;;;;6.43;5.73;;;;;;;;;;5046694;28;20245;-34
2023/09/09 00:32:33;;;;;;;8.03;5.60;;;;;;;;;;5052269;28;20288;-35
2023/09/09 00:35:00;;;;;;;6.23;5.63;;;;;;;;;;5051420;28;20256;-32
2023/09/09 00:37:27;;;;;;;6.93;6.22;;;;;;;;;;5050392;28;20237;-31
2023/09/09 00:39:55;;;;;;;9.13;6.33;;;;;;;;;;5041982;28;20223;-33
2023/09/09 00:42:22;;;;;;;6.00;5.40;;;;;;;;;;5046593;28;20213;-33
2023/09/09 00:44:50;;;;;;;7.17;5.90;;;;;;;;;;5051869;28;20225;-34
2023/09/09 00:47:18;;;;;;;6.60;5.23;;;;;;;;;;5046293;28;20305;-33
2023/09/09 00:49:45;;;;;;;5.47;4.97;;;;;;;;;;5049993;28;20232;-31
2023/09/09 00:52:12;;;;;;;7.77;5.43;;;;;;;;;;5053127;28;20281;-31
2023/09/09 00:54:39;;;;;;;6.33;5.53;;;;;;;;;;5043869;28;20197;-33
2023/09/09 00:57:06;;;;;;;7.17;5.80;;;;;;;;;;5046454;28;20547;-31
2023/09/09 00:59:33;;;;;;;7.80;5.60;;;;;;;;;;5047527;28;20264;-34
2023/09/09 01:02:03;;;;;;;6.80;5.97;;;;;;;;;;5039877;28;20658;-30
2023/09/09 01:04:30;;;;;;;8.23;6.63;;;;;;;;;;5045322;28;20225;-31
2023/09/09 01:06:58;;;;;;;7.80;6.70;;;;;;;;;;5048331;28;20201;-33
2023/09/09 01:09:25;;;;;;;5.80;5.17;;;;;;;;;;5044425;28;20214;-32
2023/09/09 01:11:53;;;;;;;7.37;5.77;;;;;;;;;;5047245;28;20204;-32
2023/09/09 01:14:20;;;;;;;6.03;5.33;;;;;;;;;;5049303;28;20309;-31
2023/09/09 01:16:50;;;;;;;7.23;5.53;;;;;;;;;;5050661;28;20206;-30
2023/09/09 01:19:20;;;;;;;8.80;5.67;;;;;;;;;;5046193;28;20223;-32
2023/09/09 01:21:48;;;;;;;7.17;5.30;;;;;;;;;;5051392;28;20206;-31
2023/09/09 01:24:17;;;;;;;6.63;6.00;;;;;;;;;;5047100;28;20300;-30
2023/09/09 01:26:44;;;;;;;9.60;6.73;;;;;;;;;;5050770;28;20220;-31
2023/09/09 01:29:11;;;;;;;7.33;6.50;;;;;;;;;;5049319;28;20301;-32
2023/09/09 01:31:39;;;;;;;7.20;6.50;;;;;;;;;;5045539;28;20205;-31
2023/09/09 01:34:06;;;;;;;6.20;5.63;;;;;;;;;;5049398;28;20233;-34
2023/09/09 01:36:34;;;;;;;6.00;5.40;;;;;;;;;;5053858;28;20294;-32
2023/09/09 01:39:01;;;;;;;6.50;5.60;;;;;;;;;;5049720;28;20319;-31
2023/09/09 01:41:29;;;;;;;7.93;5.40;;;;;;;;;;5049810;28;20565;-30
2023/09/09 01:43:57;;;;;;;8.10;5.83;;;;;;;;;;5051593;28;20213;-30
2023/09/09 01:46:24;;;;;;;7.97;5.80;;;;;;;;;;5050245;28;20229;-32
2023/09/09 01:48:51;;;;;;;7.07;5.20;;;;;;;;;;5054834;28;20212;-31
2023/09/09 01:51:18;;;;;;;6.03;5.43;;;;;;;;;;5053788;28;20209;-31
2023/09/09 01:53:45;;;;;;;6.40;5.67;;;;;;;;;;5037714;28;20250;-33
2023/09/09 01:56:13;;;;;;;6.00;5.50;;;;;;;;;;5046800;28;20296;-34
2023/09/09 01:58:41;;;;;;;6.67;5.67;;;;;;;;;;5044689;28;20196;-30
2023/09/09 02:01:08;;;;;;;6.20;5.47;;;;;;;;;;5049476;28;20212;-32
2023/09/09 02:03:35;;;;;;;6.07;5.47;;;;;;;;;;5046476;28;20228;-32
2023/09/09 02:06:03;;;;;;;10.47;6.00;;;;;;;;;;5047395;28;20232;-35
2023/09/09 02:08:30;;;;;;;5.90;5.30;;;;;;;;;;5047977;28;20209;-34
2023/09/09 02:10:57;;;;;;;8.30;6.07;;;;;;;;;;5045290;28;20208;-34
2023/09/09 02:13:24;;;;;;;6.97;6.27;;;;;;;;;;5049589;28;20620;-32
2023/09/09 02:15:52;;;;;;;6.97;6.27;;;;;;;;;;5049828;28;20216;-33
2023/09/09 02:18:19;;;;;;;5.93;5.40;;;;;;;;;;5049011;28;20201;-31
2023/09/09 02:20:47;;;;;;;6.17;5.30;;;;;;;;;;5051461;28;20258;-31
2023/09/09 02:23:14;;;;;;;8.23;5.77;;;;;;;;;;5055635;28;20212;-31
2023/09/09 02:25:41;;;;;;;5.47;4.97;;;;;;;;;;5052896;28;20284;-34
2023/09/09 02:28:08;;;;;;;6.63;5.97;;;;;;;;;;5046294;28;20232;-31
2023/09/09 02:30:35;;;;;;;7.83;7.03;;;;;;;;;;5045663;28;20680;-33
2023/09/09 02:33:04;;;;;;;6.67;6.00;;;;;;;;;;5049803;28;20210;-32
2023/09/09 02:35:31;;;;;;;6.63;5.73;;;;;;;;;;5053980;28;20196;-30
2023/09/09 02:37:58;;;;;;;6.90;6.13;;;;;;;;;;5052352;28;20207;-32
2023/09/09 02:40:25;;;;;;;7.03;6.20;;;;;;;;;;5049268;28;20233;-32
2023/09/09 02:42:53;;;;;;;6.83;6.13;;;;;;;;;;5044289;28;20404;-31
2023/09/09 02:45:20;;;;;;;9.07;6.73;;;;;;;;;;5049218;28;20220;-32
2023/09/09 02:47:47;;;;;;;7.07;6.00;;;;;;;;;;5050679;28;20201;-30
2023/09/09 02:50:15;;;;;;;6.60;5.63;;;;;;;;;;5053034;28;20236;-31
2023/09/09 02:52:42;;;;;;;6.33;5.43;;;;;;;;;;5052752;28;20224;-33
2023/09/09 02:55:09;;;;;;;5.90;5.40;;;;;;;;;;5045373;28;20205;-34
2023/09/09 02:57:37;;;;;;;6.83;5.67;;;;;;;;;;5051015;28;20201;-32
2023/09/09 03:00:07;;;;;;;7.53;6.17;;;;;;;;;;5053414;28;20230;-32
2023/09/09 03:02:35;;;;;;;8.63;5.97;;;;;;;;;;5049704;28;20247;-35
2023/09/09 03:05:03;;;;;;;6.20;5.60;;;;;;;;;;5049207;28;20686;-32
2023/09/09 03:07:31;;;;;;;6.90;6.20;;;;;;;;;;5049629;28;20205;-33
2023/09/09 03:09:58;;;;;;;6.27;5.67;;;;;;;;;;5052586;28;20239;-32
2023/09/09 03:12:25;;;;;;;7.53;6.50;;;;;;;;;;5050236;28;20207;-31
2023/09/09 03:14:53;;;;;;;7.27;5.90;;;;;;;;;;5050200;28;20298;-29
2023/09/09 03:17:20;;;;;;;7.13;5.87;;;;;;;;;;5048506;28;20220;-30
2023/09/09 03:19:48;;;;;;;6.37;5.77;;;;;;;;;;5050820;28;20227;-33
2023/09/09 03:22:15;;;;;;;6.33;5.73;;;;;;;;;;5049739;28;20206;-33
2023/09/09 03:24:44;;;;;;;6.87;5.63;;;;;;;;;;5051279;28;20205;-30
2023/09/09 03:27:11;;;;;;;7.43;6.27;;;;;;;;;;5156275;22;20233;-31
2023/09/09 03:29:38;;;;;;;7.27;5.97;;;;;;;;;;5061594;28;20252;-34
2023/09/09 03:32:06;;;;;;;7.17;6.47;;;;;;;;;;5083678;28;20212;-28
2023/09/09 03:34:33;;;;;;;8.13;6.77;;;;;;;;;;5072501;28;20279;-33
2023/09/09 03:37:00;;;;;;;7.70;6.47;;;;;;;;;;5072993;28;20204;-33
2023/09/09 03:39:27;;;;;;;7.33;6.53;;;;;;;;;;5076865;28;20284;-33
2023/09/09 03:41:56;;;;;;;7.57;6.80;;;;;;;;;;5075123;28;20208;-32
2023/09/09 03:44:23;;;;;;;9.37;6.80;;;;;;;;;;5072630;28;20242;-34
2023/09/09 03:46:50;;;;;;;7.77;6.73;;;;;;;;;;5066829;28;20230;-28
2023/09/09 03:49:17;;;;;;;7.27;6.57;;;;;;;;;;5075091;28;20229;-32
2023/09/09 03:51:45;;;;;;;7.37;6.57;;;;;;;;;;5075235;28;20220;-33
2023/09/09 03:54:12;;;;;;;8.17;6.10;;;;;;;;;;5066003;28;20243;-29
2023/09/09 03:56:39;;;;;;;5.90;5.40;;;;;;;;;;5064190;28;20201;-30
2023/09/09 03:59:08;;;;;;;7.50;6.10;;;;;;;;;;5068058;28;20234;-32
2023/09/09 04:01:36;;;;;;;6.83;5.67;;;;;;;;;;5064512;28;20282;-32
2023/09/09 04:04:04;;;;;;;6.73;6.13;;;;;;;;;;5072207;28;20202;-30
2023/09/09 04:06:31;;;;;;;6.40;5.80;;;;;;;;;;5066064;28;20232;-32
2023/09/09 04:08:58;;;;;;;6.53;5.93;;;;;;;;;;5073546;28;20256;-33
2023/09/09 04:11:25;;;;;;;6.37;5.77;;;;;;;;;;5069733;28;20301;-30
2023/09/09 04:13:53;;;;;;;5.77;5.20;;;;;;;;;;5070791;28;20270;-31
2023/09/09 04:16:21;;;;;;;8.40;5.63;;;;;;;;;;5077511;28;20292;-29
2023/09/09 04:18:48;;;;;;;5.17;4.67;;;;;;;;;;5075477;28;20295;-32
2023/09/09 04:21:15;;;;;;;6.13;4.97;;;;;;;;;;5068283;28;20214;-31
2023/09/09 04:23:42;;;;;;;5.77;5.20;;;;;;;;;;5065802;28;20845;-29
2023/09/09 04:26:09;;;;;;;6.83;5.30;;;;;;;;;;5069195;28;20320;-33
2023/09/09 04:28:37;;;;;;;5.50;5.00;;;;;;;;;;5067483;28;20226;-30
2023/09/09 04:31:04;;;;;;;6.23;5.40;;;;;;;;;;5078207;28;20203;-32
2023/09/09 04:33:33;;;;;;;6.10;5.50;;;;;;;;;;5069282;28;20208;-29
2023/09/09 04:36:00;;;;;;;9.17;6.70;;;;;;;;;;5071216;28;20254;-28
2023/09/09 04:38:27;;;;;;;7.87;6.50;;;;;;;;;;5083193;28;20206;-31
2023/09/09 04:40:54;;;;;;;6.93;5.80;;;;;;;;;;5069476;28;20240;-32
2023/09/09 04:43:22;;;;;;;6.27;5.63;;;;;;;;;;5080300;28;20210;-31
2023/09/09 04:45:49;;;;;;;6.23;5.63;;;;;;;;;;5081293;28;20234;-31
2023/09/09 04:48:16;;;;;;;9.67;5.97;;;;;;;;;;5071876;28;20223;-32
2023/09/09 04:50:44;;;;;;;6.10;5.50;;;;;;;;;;5080961;28;20246;-30
2023/09/09 04:53:11;;;;;;;7.37;6.60;;;;;;;;;;5080591;28;20660;-31
2023/09/09 04:55:39;;;;;;;6.30;5.33;;;;;;;;;;5075304;28;20290;-30
2023/09/09 04:58:07;;;;;;;6.17;5.40;;;;;;;;;;5075879;28;20211;-31
2023/09/09 05:00:34;;;;;;;5.80;5.30;;;;;;;;;;5080786;28;20318;-30
2023/09/09 05:03:01;;;;;;;5.90;4.83;;;;;;;;;;5065208;28;20206;-34
2023/09/09 05:05:28;;;;;;;6.47;5.77;;;;;;;;;;5072458;28;20211;-30
2023/09/09 05:07:57;;;;;;;5.87;5.27;;;;;;;;;;5074851;28;20216;-29
2023/09/09 05:10:26;;;;;;;5.67;5.10;;;;;;;;;;5068446;28;20234;-29
2023/09/09 05:12:54;;;;;;;7.57;5.50;;;;;;;;;;5076845;28;20290;-30
2023/09/09 05:15:21;;;;;;;7.33;5.40;;;;;;;;;;5069685;28;20207;-32
2023/09/09 05:17:48;;;;;;;6.93;5.57;;;;;;;;;;5066466;28;20577;-28
2023/09/09 05:20:15;;;;;;;6.23;5.43;;;;;;;;;;5068183;28;20322;-33
2023/09/09 05:22:42;;;;;;;6.47;4.87;;;;;;;;;;5073437;28;20626;-31
2023/09/09 05:25:11;;;;;;;6.20;5.30;;;;;;;;;;5068274;28;20214;-31
2023/09/09 05:27:38;;;;;;;6.03;4.93;;;;;;;;;;5066118;28;20441;-32
2023/09/09 05:30:06;;;;;;;6.77;4.50;;;;;;;;;;5069802;28;20236;-32
2023/09/09 05:32:34;;;;;;;5.70;5.20;;;;;;;;;;5064914;28;20221;-29
2023/09/09 05:35:01;;;;;;;6.43;5.83;;;;;;;;;;5065290;28;20202;-33
2023/09/09 05:37:30;;;;;;;6.70;5.60;;;;;;;;;;5076770;28;20215;-32
2023/09/09 05:39:57;;;;;;;9.43;6.57;;;;;;;;;;5063324;28;20220;-29
2023/09/09 05:42:26;;;;;;;5.33;4.83;;;;;;;;;;5072841;28;20199;-31
2023/09/09 05:44:53;;;;;;;5.33;4.83;;;;;;;;;;5071570;28;20555;-32
2023/09/09 05:47:20;;;;;;;5.07;4.67;;;;;;;;;;5065352;28;20629;-29
2023/09/09 05:49:47;;;;;;;5.80;5.30;;;;;;;;;;5075630;28;20559;-28
2023/09/09 05:52:14;;;;;;;5.53;5.00;;;;;;;;;;5071723;28;20283;-29
2023/09/09 05:54:43;;;;;;;6.80;5.67;;;;;;;;;;5070961;28;20210;-31
2023/09/09 05:57:26;;;;;;;6.17;5.30;;;;;;;;;;5075639;28;20653;-35
2023/09/09 06:00:02;;;;;;;7.07;5.63;;;;;;;;;;5069590;28;20230;-30
2023/09/09 06:02:30;;;;;;;6.50;5.80;;;;;;;;;;5065890;28;20299;-30
2023/09/09 06:04:58;;;;;;;6.67;5.50;;;;;;;;;;5071699;28;20591;-29
2023/09/09 06:07:26;;;;;;;8.73;6.37;;;;;;;;;;5066701;28;20213;-30
2023/09/09 06:09:54;;;;;;;7.23;5.80;;;;;;;;;;5059092;28;20224;-32
2023/09/09 06:12:27;;;;;;;7.37;5.57;;;;;;;;;;5072818;28;20210;-29
2023/09/09 06:14:54;;;;;;;5.93;5.27;;;;;;;;;;5077354;28;20204;-33
2023/09/09 06:17:23;;;;;;;6.17;5.00;;;;;;;;;;5081410;28;20212;-33
2023/09/09 06:19:50;;;;;;;6.63;5.43;;;;;;;;;;5071801;28;20227;-29
2023/09/09 06:22:17;;;;;;;6.33;5.73;;;;;;;;;;5074448;28;20216;-31
2023/09/09 06:24:45;;;;;;;8.70;5.70;;;;;;;;;;5071113;28;20203;-30
2023/09/09 06:27:12;;;;;;;8.73;5.73;;;;;;;;;;5077184;28;20230;-30
2023/09/09 06:29:39;;;;;;;8.10;6.50;;;;;;;;;;5076799;28;20229;-30
2023/09/09 06:32:09;;;;;;;6.70;6.00;;;;;;;;;;5070276;28;20214;-29
2023/09/09 06:34:38;;;;;;;7.30;5.87;;;;;;;;;;5067623;28;20205;-30
2023/09/09 06:37:05;;;;;;;6.97;6.27;;;;;;;;;;5079836;28;20202;-33
2023/09/09 06:39:32;;;;;;;8.27;5.80;;;;;;;;;;5071726;28;20701;-32
2023/09/09 06:42:00;;;;;;;7.47;6.77;;;;;;;;;;5071801;28;20216;-29
2023/09/09 06:44:27;;;;;;;7.00;6.30;;;;;;;;;;5070203;28;20207;-33
2023/09/09 06:46:54;;;;;;;7.37;6.67;;;;;;;;;;5078539;28;20585;-29
2023/09/09 06:49:21;;;;;;;6.90;6.27;;;;;;;;;;5066082;28;20228;-30
2023/09/09 06:51:50;;;;;;;8.07;6.80;;;;;;;;;;5069277;28;20203;-31
2023/09/09 06:54:17;;;;;;;7.23;6.53;;;;;;;;;;5074009;28;20837;-28
2023/09/09 06:56:44;;;;;;;6.63;6.03;;;;;;;;;;5068543;28;20297;-33
2023/09/09 06:59:11;;;;;;;7.13;6.17;;;;;;;;;;5076918;28;20285;-30
2023/09/09 07:01:38;;;;;;;6.90;6.20;;;;;;;;;;5070607;28;20208;-30
2023/09/09 07:04:06;;;;;;;8.13;7.33;;;;;;;;;;5064683;28;20201;-32
2023/09/09 07:06:33;;;;;;;11.37;8.00;;;;;;;;;;5073439;28;20588;-30
2023/09/09 07:09:01;;;;;;;8.50;7.23;;;;;;;;;;5065818;28;20226;-31
2023/09/09 07:11:29;;;;;;;8.60;6.87;;;;;;;;;;5064849;28;20283;-29
2023/09/09 07:13:56;;;;;;;11.80;7.27;;;;;;;;;;5082838;28;20204;-33
2023/09/09 07:16:23;;;;;;;10.27;8.60;;;;;;;;;;5073331;28;20200;-30
2023/09/09 07:18:50;;;;;;;7.73;7.03;;;;;;;;;;5072455;28;20399;-31
2023/09/09 07:21:17;;;;;;;9.70;8.47;;;;;;;;;;5067254;28;20212;-30
2023/09/09 07:23:47;;;;;;;9.40;7.33;;;;;;;;;;5060799;28;20312;-31
2023/09/09 07:26:16;;;;;;;8.53;7.73;;;;;;;;;;5061904;28;20232;-32
2023/09/09 07:28:43;;;;;;;8.23;7.40;;;;;;;;;;5078783;28;20201;-32
2023/09/09 07:31:11;;;;;;;8.50;7.63;;;;;;;;;;5075464;28;20211;-33
2023/09/09 07:33:38;;;;;;;12.80;8.57;;;;;;;;;;5075838;28;20204;-32
2023/09/09 07:36:05;;;;;;;9.80;8.63;;;;;;;;;;5076746;28;20290;-28
2023/09/09 07:38:32;;;;;;;9.43;8.33;;;;;;;;;;5073539;28;20208;-30
2023/09/09 07:41:01;;;;;;;7.23;6.43;;;;;;;;;;5068654;28;20219;-31
2023/09/09 07:43:29;;;;;;;8.20;7.40;;;;;;;;;;5074120;28;20231;-31
2023/09/09 07:45:57;;;;;;;10.20;8.17;;;;;;;;;;5079210;28;20634;-32
2023/09/09 07:48:24;;;;;;;10.13;8.57;;;;;;;;;;5067554;28;20229;-29
2023/09/09 07:50:52;;;;;;;7.83;6.03;;;;;;;;;;5069239;28;20227;-33
2023/09/09 07:53:20;;;;;;;10.63;8.90;;;;;;;;;;5077329;28;20199;-32
2023/09/09 07:55:48;;;;;;;9.70;8.43;;;;;;;;;;5067862;28;20288;-32
2023/09/09 07:58:16;;;;;;;11.37;9.53;;;;;;;;;;5076848;28;20216;-31
2023/09/09 08:00:44;;;;;;;11.43;10.17;;;;;;;;;;5075368;28;21334;-32
2023/09/09 08:03:12;;;;;;;10.10;8.87;;;;;;;;;;5058112;28;20205;-27
2023/09/09 08:05:39;;;;;;;9.17;8.27;;;;;;;;;;5062023;28;20303;-32
2023/09/09 08:08:06;;;;;;;10.60;8.93;;;;;;;;;;5073328;28;20221;-32
2023/09/09 08:10:34;;;;;;;8.33;7.57;;;;;;;;;;5063389;28;20252;-28
2023/09/09 08:13:02;;;;;;;10.00;9.00;;;;;;;;;;5069867;28;20282;-34
2023/09/09 08:15:29;;;;;;;9.97;8.97;;;;;;;;;;5072395;28;20207;-33
2023/09/09 08:17:57;;;;;;;9.60;8.60;;;;;;;;;;5072037;28;20231;-28
2023/09/09 08:20:25;;;;;;;9.37;8.37;;;;;;;;;;5072634;28;20307;-32
2023/09/09 08:22:52;;;;;;;12.25;7.82;;;;;;;;;;5082459;28;20542;-31
2023/09/09 08:25:19;;;;;;;9.50;8.60;;;;;;;;;;5067951;28;20291;-31
2023/09/09 08:27:47;;;;;;;10.53;9.40;;;;;;;;;;5070116;28;20231;-29
2023/09/09 08:30:15;;;;;;;9.70;8.23;;;;;;;;;;5071691;28;20588;-31
2023/09/09 08:32:42;;;;;;;10.03;8.90;;;;;;;;;;5059297;28;20207;-34
2023/09/09 08:35:10;;;;;;;10.52;8.73;;;;;;;;;;5062753;28;20205;-31
2023/09/09 08:37:38;;;;;;;9.67;8.23;;;;;;;;;;5076159;28;20240;-34
2023/09/09 08:40:05;;;;;;;9.20;8.30;;;;;;;;;;5063426;28;20230;-29
2023/09/09 08:42:39;;;;;;;8.37;7.43;;;;;;;;;;5062030;28;20213;-30
2023/09/09 08:45:10;;;;;;;9.13;8.23;;;;;;;;;;5081531;28;20206;-32
2023/09/09 08:47:38;;;;;;;9.07;8.18;;;;;;;;;;5063127;28;20695;-32
2023/09/09 08:50:10;;;;;;;9.57;8.55;;;;;;;;;;5067895;28;20562;-30
2023/09/09 08:52:39;;;;;;;8.30;7.15;;;;;;;;;;5073061;28;20666;-33
2023/09/09 08:55:07;;;;;;;9.95;7.78;;;;;;;;;;5069973;28;20207;-29
2023/09/09 08:57:34;;;;;;;9.13;8.23;;;;;;;;;;5061073;28;20208;-31
2023/09/09 09:00:03;;;;;;;16.20;7.78;;;;;;;;;;5066601;28;20255;-31
2023/09/09 09:02:30;;;;;;;9.02;8.10;;;;;;;;;;5056080;28;20267;-27
2023/09/09 09:04:57;;;;;;;9.18;8.27;;;;;;;;;;5063833;28;20209;-30
2023/09/09 09:07:27;;;;;;;9.38;8.48;;;;;;;;;;5061901;28;20227;-29
2023/09/09 09:09:56;;;;;;;9.25;7.65;;;;;;;;;;5060158;28;20253;-29
2023/09/09 09:12:24;;;;;;;8.20;7.43;;;;;;;;;;5066596;28;20317;-29
2023/09/09 09:14:51;;;;;;;7.80;6.93;;;;;;;;;;5074574;28;20218;-28
2023/09/09 09:17:18;;;;;;;9.93;7.75;;;;;;;;;;5067232;28;20260;-30
2023/09/09 09:19:45;;;;;;;8.32;7.38;;;;;;;;;;5069924;28;20226;-31
2023/09/09 09:22:13;;;;;;;9.02;7.63;;;;;;;;;;5067986;28;20650;-32
2023/09/09 09:24:44;;;;;;;9.98;7.15;;;;;;;;;;5065285;28;20212;-28
2023/09/09 09:27:13;;;;;;;8.38;7.47;;;;;;;;;;5079780;28;20232;-32
2023/09/09 09:29:41;;;;;;;9.15;8.15;;;;;;;;;;5161898;22;20247;-33
2023/09/09 09:32:08;;;;;;;7.35;6.65;;;;;;;;;;5062944;28;20248;-33
2023/09/09 09:34:35;;;;;;;7.80;7.03;;;;;;;;;;5049116;28;20244;-31
2023/09/09 09:37:05;;;;;;;8.65;7.65;;;;;;;;;;5054949;28;20232;-34
2023/09/09 09:39:43;;;;;;;10.70;7.68;;;;;;;;;;5049996;28;20226;-33
2023/09/09 09:42:13;;;;;;;7.80;6.85;;;;;;;;;;5055014;28;20254;-35
2023/09/09 09:44:40;;;;;;;10.10;7.20;;;;;;;;;;5059037;28;20283;-34
2023/09/09 09:47:08;;;;;;;8.27;7.05;;;;;;;;;;5052835;28;20205;-32
2023/09/09 09:49:36;;;;;;;7.43;6.72;;;;;;;;;;5055749;28;20318;-31
2023/09/09 09:52:03;;;;;;;7.55;6.80;;;;;;;;;;5056493;28;20205;-34
2023/09/09 09:54:31;;;;;;;10.85;6.85;;;;;;;;;;5054817;28;20218;-34
2023/09/09 09:57:00;;;;;;;7.25;6.45;;;;;;;;;;5049755;28;20209;-34
2023/09/09 09:59:31;;;;;;;7.20;6.50;;;;;;;;;;5056373;28;20228;-32
2023/09/09 10:01:58;;;;;;;6.90;6.25;;;;;;;;;;5048036;28;20208;-33
2023/09/09 10:04:27;;;;;;;7.50;6.15;;;;;;;;;;5051548;28;20550;-33
2023/09/09 10:06:56;;;;;;;8.25;6.85;;;;;;;;;;5056097;28;20203;-32
2023/09/09 10:09:29;;;;;;;7.03;6.18;;;;;;;;;;5048765;28;20574;-32
2023/09/09 10:11:59;;;;;;;7.68;5.95;;;;;;;;;;5043076;28;20204;-31
2023/09/09 10:14:27;;;;;;;7.97;6.13;;;;;;;;;;5054959;28;20205;-32
2023/09/09 10:16:55;;;;;;;7.78;6.03;;;;;;;;;;5062581;28;20522;-32
2023/09/09 10:19:23;;;;;;;7.10;6.38;;;;;;;;;;5048876;28;20292;-34
2023/09/09 10:21:52;;;;;;;6.82;6.22;;;;;;;;;;5047521;28;20212;-33
2023/09/09 10:24:20;;;;;;;6.38;5.57;;;;;;;;;;5059078;28;20232;-33
2023/09/09 10:26:49;;;;;;;6.10;5.53;;;;;;;;;;5048382;28;20296;-32
2023/09/09 10:29:18;;;;;;;8.40;5.43;;;;;;;;;;5060077;28;20234;-33
2023/09/09 10:31:45;;;;;;;7.78;5.70;;;;;;;;;;5057699;28;20217;-31
2023/09/09 10:34:16;;;;;;;7.25;5.55;;;;;;;;;;5051313;28;20219;-34
2023/09/09 10:36:43;;;;;;;6.55;5.35;;;;;;;;;;5059656;28;20261;-32
2023/09/09 10:39:13;;;;;;;8.10;5.88;;;;;;;;;;5056200;28;20310;-30
2023/09/09 10:41:40;;;;;;;7.22;5.93;;;;;;;;;;5050012;28;20296;-33
2023/09/09 10:44:08;;;;;;;12.05;6.00;;;;;;;;;;5060551;28;20292;-31
2023/09/09 10:46:37;;;;;;;8.05;5.72;;;;;;;;;;5051986;28;20215;-29
2023/09/09 10:49:04;;;;;;;6.85;6.00;;;;;;;;;;5046351;28;20236;-31
2023/09/09 10:51:44;;;;;;;6.38;5.70;;;;;;;;;;5054525;28;20306;-32
2023/09/09 10:54:14;;;;;;;8.68;5.20;;;;;;;;;;5044211;28;20212;-33
2023/09/09 10:56:51;;;;;;;6.68;6.03;;;;;;;;;;5053490;28;20219;-29
2023/09/09 10:59:20;;;;;;;6.15;5.55;;;;;;;;;;5057878;28;20251;-34
2023/09/09 11:01:48;;;;;;;7.60;5.60;;;;;;;;;;5053930;28;20210;-30
2023/09/09 11:04:19;;;;;;;8.23;5.85;;;;;;;;;;5055014;28;20223;-34
2023/09/09 11:07:00;;;;;;;7.50;5.72;;;;;;;;;;5053604;28;20204;-34
2023/09/09 11:09:30;;;;;;;8.02;5.45;;;;;;;;;;5050620;28;20223;-31
2023/09/09 11:11:57;;;;;;;6.38;5.00;;;;;;;;;;5047187;28;20738;-32
2023/09/09 11:14:30;;;;;;;7.25;5.57;;;;;;;;;;5055861;28;20201;-30
2023/09/09 11:16:58;;;;;;;5.75;4.95;;;;;;;;;;5053619;28;20212;-33
2023/09/09 11:19:25;;;;;;;6.78;5.35;;;;;;;;;;5050175;28;20225;-31
2023/09/09 11:21:53;;;;;;;6.90;5.20;;;;;;;;;;5051737;28;20208;-33
2023/09/09 11:24:21;;;;;;;7.90;4.90;;;;;;;;;;5046713;28;20205;-32
2023/09/09 11:26:49;;;;;;;8.88;5.43;;;;;;;;;;5049631;28;20199;-33
2023/09/09 11:29:18;;;;;;;5.88;5.30;;;;;;;;;;5052582;28;20231;-33
2023/09/09 11:31:45;;;;;;;6.55;5.50;;;;;;;;;;5053295;28;20210;-31
2023/09/09 11:34:13;;;;;;;6.53;5.55;;;;;;;;;;5053007;28;20315;-34
2023/09/09 11:36:40;;;;;;;8.55;4.93;;;;;;;;;;5052928;28;20215;-32
2023/09/09 11:39:08;;;;;;;6.80;5.57;;;;;;;;;;5054056;28;20282;-32
2023/09/09 11:41:37;;;;;;;5.53;5.00;;;;;;;;;;5052782;28;20203;-30
2023/09/09 11:44:05;;;;;;;7.95;5.65;;;;;;;;;;5063296;28;20235;-32
2023/09/09 11:46:37;;;;;;;6.15;5.05;;;;;;;;;;5055077;28;20209;-33
2023/09/09 11:49:05;;;;;;;6.00;4.80;;;;;;;;;;5051630;28;20248;-31
2023/09/09 11:51:32;;;;;;;7.57;4.82;;;;;;;;;;5056582;28;20209;-33
2023/09/09 11:54:00;;;;;;;5.85;4.88;;;;;;;;;;5052186;28;20219;-32
2023/09/09 11:56:27;;;;;;;4.80;4.38;;;;;;;;;;5051204;28;20200;-31
2023/09/09 11:58:55;;;;;;;5.97;5.03;;;;;;;;;;5059216;28;20227;-32
2023/09/09 12:01:23;;;;;;;6.53;4.53;;;;;;;;;;5057272;28;20207;-34
2023/09/09 12:03:51;;;;;;;6.35;4.28;;;;;;;;;;5046412;28;20300;-33
2023/09/09 12:06:19;;;;;;;8.80;4.60;;;;;;;;;;5049325;28;20209;-33
2023/09/09 12:08:48;;;;;;;5.18;4.00;;;;;;;;;;5056560;28;20222;-33
2023/09/09 12:11:16;;;;;;;5.60;3.92;;;;;;;;;;5053045;28;20584;-31
2023/09/09 12:13:44;;;;;;;7.35;4.10;;;;;;;;;;5055798;28;20205;-32
2023/09/09 12:16:16;;;;;;;5.50;3.90;;;;;;;;;;5060207;28;20315;-33
2023/09/09 12:18:43;;;;;;;10.90;4.38;;;;;;;;;;5042859;28;20292;-31
2023/09/09 12:21:11;;;;;;;6.30;3.85;;;;;;;;;;5050072;28;20286;-33
2023/09/09 12:23:49;;;;;;;3.78;3.08;;;;;;;;;;5046209;28;20229;-31
2023/09/09 12:26:17;;;;;;;5.88;3.63;;;;;;;;;;5051887;28;20201;-32
2023/09/09 12:28:45;;;;;;;7.07;3.90;;;;;;;;;;5052671;28;20237;-31
2023/09/09 12:31:14;;;;;;;9.35;3.97;;;;;;;;;;5053991;28;20267;-32
2023/09/09 12:33:43;;;;;;;6.05;4.22;;;;;;;;;;5052027;28;20267;-34
2023/09/09 12:36:17;;;;;;;6.10;4.22;;;;;;;;;;5054293;28;20201;-31
2023/09/09 12:38:44;;;;;;;8.48;5.00;;;;;;;;;;5049012;28;20224;-33
2023/09/09 12:41:12;;;;;;;6.28;4.38;;;;;;;;;;5049471;28;20218;-33
2023/09/09 12:43:39;;;;;;;5.47;4.50;;;;;;;;;;5048026;28;20206;-31
2023/09/09 12:46:07;;;;;;;8.15;3.80;;;;;;;;;;5049714;28;20209;-32
2023/09/09 12:48:51;;;;;;;12.40;4.57;;;;;;;;;;5049422;28;20232;-31
2023/09/09 12:51:18;;;;;;;7.65;5.15;;;;;;;;;;5047493;28;20208;-33
2023/09/09 12:53:45;;;;;;;9.07;4.72;;;;;;;;;;5048980;28;20216;-31
2023/09/09 12:56:12;;;;;;;8.35;4.30;;;;;;;;;;5046093;28;20211;-32
2023/09/09 12:58:39;;;;;;;8.40;4.35;;;;;;;;;;5051890;28;20598;-31
2023/09/09 13:01:07;;;;;;;6.15;3.72;;;;;;;;;;5051428;28;20206;-33
2023/09/09 13:03:35;;;;;;;8.70;4.00;;;;;;;;;;5047099;28;20300;-30
2023/09/09 13:06:03;;;;;;;6.35;4.40;;;;;;;;;;5030147;28;20574;-33
2023/09/09 13:08:31;;;;;;;6.30;4.03;;;;;;;;;;5039875;28;20313;-33
2023/09/09 13:10:58;;;;;;;5.85;4.18;;;;;;;;;;5029762;28;20222;-32
2023/09/09 13:13:25;;;;;;;7.60;4.47;;;;;;;;;;5032061;28;20210;-33
2023/09/09 13:15:52;;;;;;;6.55;4.00;;;;;;;;;;5029089;28;20224;-34
2023/09/09 13:18:19;;;;;;;7.63;3.75;;;;;;;;;;5027397;28;20258;-29
2023/09/09 13:20:48;;;;;;;10.23;4.45;;;;;;;;;;5037416;28;20311;-29
2023/09/09 13:23:16;;;;;;;10.48;3.97;;;;;;;;;;5033765;28;20210;-31
2023/09/09 13:25:43;;;;;;;10.65;3.85;;;;;;;;;;5028885;28;20284;-35
2023/09/09 13:28:11;;;;;;;5.55;3.97;;;;;;;;;;5030656;28;20198;-31
2023/09/09 13:30:38;;;;;;;8.30;4.07;;;;;;;;;;5032580;28;20325;-33
2023/09/09 13:33:05;;;;;;;7.47;4.40;;;;;;;;;;5031526;28;20628;-33
2023/09/09 13:35:40;;;;;;;5.82;4.25;;;;;;;;;;5037435;28;20213;-30
2023/09/09 13:38:08;;;;;;;6.75;3.92;;;;;;;;;;5037319;28;20255;-30
2023/09/09 13:40:35;;;;;;;9.75;4.10;;;;;;;;;;5033907;28;20313;-31
2023/09/09 13:43:03;;;;;;;9.32;3.72;;;;;;;;;;5041993;28;20206;-34
2023/09/09 13:45:33;;;;;;;4.97;3.42;;;;;;;;;;5048040;28;20237;-33
2023/09/09 13:48:00;;;;;;;4.13;3.70;;;;;;;;;;5028643;28;20289;-33
2023/09/09 13:50:28;;;;;;;7.30;4.00;;;;;;;;;;5026622;28;20240;-31
2023/09/09 13:53:05;;;;;;;7.80;4.38;;;;;;;;;;5037117;28;20270;-28
2023/09/09 13:55:33;;;;;;;5.30;4.10;;;;;;;;;;5024239;28;20206;-30
2023/09/09 13:58:01;;;;;;;6.00;3.50;;;;;;;;;;5036323;28;20205;-31
2023/09/09 14:00:28;;;;;;;8.98;4.22;;;;;;;;;;5037670;28;20237;-30
2023/09/09 14:02:55;;;;;;;6.22;3.83;;;;;;;;;;5027434;28;20206;-33
2023/09/09 14:05:22;;;;;;;6.72;3.58;;;;;;;;;;5039039;28;20578;-32
2023/09/09 14:07:49;;;;;;;7.38;3.70;;;;;;;;;;5043482;28;20567;-32
2023/09/09 14:10:17;;;;;;;4.05;3.25;;;;;;;;;;5032633;28;20233;-31
2023/09/09 14:12:45;;;;;;;8.82;3.78;;;;;;;;;;5039743;28;20210;-34
2023/09/09 14:15:13;;;;;;;6.05;3.55;;;;;;;;;;5028479;28;20294;-31
2023/09/09 14:17:40;;;;;;;7.68;4.25;;;;;;;;;;5035291;28;20236;-31
2023/09/09 14:20:08;;;;;;;9.48;3.83;;;;;;;;;;5035518;28;20230;-33
2023/09/09 14:22:35;;;;;;;4.65;3.75;;;;;;;;;;5047460;28;20214;-32
2023/09/09 14:25:02;;;;;;;7.53;3.88;;;;;;;;;;5029834;28;20214;-32
2023/09/09 14:27:29;;;;;;;3.92;3.55;;;;;;;;;;5034699;28;20257;-34
2023/09/09 14:29:58;;;;;;;7.57;4.07;;;;;;;;;;5044255;28;20228;-32
2023/09/09 14:32:25;;;;;;;5.75;4.07;;;;;;;;;;5042124;28;20206;-33
2023/09/09 14:34:52;;;;;;;8.10;3.70;;;;;;;;;;5031542;28;20214;-29
2023/09/09 14:37:21;;;;;;;6.15;3.63;;;;;;;;;;5033024;28;20576;-33
2023/09/09 14:39:51;;;;;;;6.70;3.78;;;;;;;;;;5017182;28;20302;-32
2023/09/09 14:42:18;;;;;;;6.97;3.90;;;;;;;;;;5038165;28;20212;-31
2023/09/09 14:44:45;;;;;;;5.80;4.28;;;;;;;;;;5047318;28;20208;-33
2023/09/09 14:47:13;;;;;;;4.82;3.65;;;;;;;;;;5045487;28;20206;-31